Time;durP1;ratioP1;P1;durP2;ratioP2;P2;SDS_P1;SDS_P2;PMS_P1;PMS_P2;Temp;Humidity;BMP_temperature;BMP_pressure;BME280_temperature;BME280_humidity;BME280_pressure;Samples;Min_cycle;Max_cycle;Signal;HPM_P1;HPM_P2
2021/04/19 00:00:52;;;;;;;12.80;5.57;;;;;;;;;;4943746;28;20133;-64
2021/04/19 00:03:19;;;;;;;10.57;5.05;;;;;;;;;;4962982;28;20035;-63
2021/04/19 00:05:45;;;;;;;10.05;4.95;;;;;;;;;;4960284;28;20027;-64
2021/04/19 00:08:13;;;;;;;9.45;5.38;;;;;;;;;;4944108;28;20494;-62
2021/04/19 00:10:38;;;;;;;13.02;6.55;;;;;;;;;;4957002;28;20029;-63
2021/04/19 00:13:07;;;;;;;10.70;5.05;;;;;;;;;;4958561;28;20034;-63
2021/04/19 00:15:32;;;;;;;15.73;5.47;;;;;;;;;;4949155;28;20080;-63
2021/04/19 00:17:58;;;;;;;15.48;5.97;;;;;;;;;;4929868;28;20042;-64
2021/04/19 00:20:24;;;;;;;17.75;5.88;;;;;;;;;;4950062;28;20026;-64
2021/04/19 00:22:50;;;;;;;15.48;5.72;;;;;;;;;;4958340;28;20042;-64
2021/04/19 00:25:19;;;;;;;11.32;5.97;;;;;;;;;;4947801;28;20062;-64
2021/04/19 00:27:44;;;;;;;10.45;4.88;;;;;;;;;;4958116;28;20573;-63
2021/04/19 00:30:10;;;;;;;15.82;6.00;;;;;;;;;;4959184;28;20725;-63
2021/04/19 00:32:38;;;;;;;13.63;5.80;;;;;;;;;;4930354;28;20042;-63
2021/04/19 00:35:05;;;;;;;16.80;6.78;;;;;;;;;;4959907;28;20041;-64
2021/04/19 00:37:34;;;;;;;10.60;5.88;;;;;;;;;;4959384;28;20039;-63
2021/04/19 00:39:59;;;;;;;16.35;6.05;;;;;;;;;;4947125;28;20514;-64
2021/04/19 00:42:29;;;;;;;17.90;6.20;;;;;;;;;;4960816;28;20039;-63
2021/04/19 00:44:54;;;;;;;20.00;5.80;;;;;;;;;;4957430;28;20035;-64
2021/04/19 00:47:26;;;;;;;14.38;6.50;;;;;;;;;;4958467;28;20038;-64
2021/04/19 00:49:52;;;;;;;15.52;5.97;;;;;;;;;;4956664;28;20023;-63
2021/04/19 00:52:20;;;;;;;13.40;6.75;;;;;;;;;;4962802;28;20544;-64
2021/04/19 00:54:46;;;;;;;16.42;6.07;;;;;;;;;;4958270;28;20073;-64
2021/04/19 00:57:14;;;;;;;13.43;5.60;;;;;;;;;;4962627;28;20046;-64
2021/04/19 00:59:39;;;;;;;19.20;6.57;;;;;;;;;;4929229;28;20084;-64
2021/04/19 01:02:12;;;;;;;13.20;5.35;;;;;;;;;;4956821;28;20074;-64
2021/04/19 01:04:38;;;;;;;10.88;5.07;;;;;;;;;;4947467;28;20191;-63
2021/04/19 01:07:03;;;;;;;14.75;6.15;;;;;;;;;;4963934;28;20471;-63
2021/04/19 01:09:29;;;;;;;11.25;5.63;;;;;;;;;;4957843;28;21780;-64
2021/04/19 01:12:00;;;;;;;22.73;7.05;;;;;;;;;;4947588;28;20046;-64
2021/04/19 01:14:31;;;;;;;11.50;5.95;;;;;;;;;;4929141;28;20035;-63
2021/04/19 01:16:57;;;;;;;12.52;5.85;;;;;;;;;;4956341;28;20042;-63
2021/04/19 01:19:26;;;;;;;17.33;6.45;;;;;;;;;;4957341;28;20030;-64
2021/04/19 01:21:51;;;;;;;15.95;6.35;;;;;;;;;;4966230;28;20042;-64
2021/04/19 01:24:17;;;;;;;10.80;5.53;;;;;;;;;;4957486;28;20038;-64
2021/04/19 01:26:42;;;;;;;9.68;5.70;;;;;;;;;;4940224;28;21053;-64
2021/04/19 01:29:11;;;;;;;11.65;5.68;;;;;;;;;;4957616;28;20736;-63
2021/04/19 01:31:37;;;;;;;13.90;5.75;;;;;;;;;;4957645;28;20045;-63
2021/04/19 01:34:02;;;;;;;12.50;6.30;;;;;;;;;;4956879;28;20093;-64
2021/04/19 01:36:29;;;;;;;11.23;6.43;;;;;;;;;;4957439;28;20406;-65
2021/04/19 01:38:55;;;;;;;14.32;6.70;;;;;;;;;;4946493;28;20031;-64
2021/04/19 01:41:23;;;;;;;18.83;7.63;;;;;;;;;;4955479;28;20121;-65
2021/04/19 01:43:51;;;;;;;14.52;7.28;;;;;;;;;;4955255;28;20784;-64
2021/04/19 01:46:16;;;;;;;16.27;7.60;;;;;;;;;;4957595;28;20035;-64
2021/04/19 01:48:48;;;;;;;22.23;8.48;;;;;;;;;;4971561;28;20027;-64
2021/04/19 01:51:22;;;;;;;17.02;7.28;;;;;;;;;;4970722;28;20039;-63
2021/04/19 01:53:51;;;;;;;18.63;7.97;;;;;;;;;;4957346;28;20042;-64
2021/04/19 01:56:17;;;;;;;19.55;9.05;;;;;;;;;;4975307;28;20034;-63
2021/04/19 01:58:42;;;;;;;22.40;8.43;;;;;;;;;;4957455;28;20033;-63
2021/04/19 02:01:10;;;;;;;21.92;8.98;;;;;;;;;;4960715;28;20042;-64
2021/04/19 02:03:41;;;;;;;19.15;8.65;;;;;;;;;;4964353;28;20039;-64
2021/04/19 02:06:10;;;;;;;21.83;9.13;;;;;;;;;;4959615;28;20390;-63
2021/04/19 02:08:53;;;;;;;22.98;9.35;;;;;;;;;;4959505;28;20027;-64
2021/04/19 02:11:21;;;;;;;17.35;9.07;;;;;;;;;;4959908;28;20062;-63
2021/04/19 02:13:59;;;;;;;18.70;8.82;;;;;;;;;;4958388;28;20061;-63
2021/04/19 02:16:46;;;;;;;14.63;8.38;;;;;;;;;;4960379;28;20494;-63
2021/04/19 02:19:30;;;;;;;20.90;9.63;;;;;;;;;;4976115;28;20030;-63
2021/04/19 02:22:03;;;;;;;18.17;8.55;;;;;;;;;;4948350;28;20466;-64
2021/04/19 02:24:35;;;;;;;24.55;10.50;;;;;;;;;;4961537;28;20031;-64
2021/04/19 02:27:05;;;;;;;22.05;9.80;;;;;;;;;;4964120;28;20038;-63
2021/04/19 02:29:39;;;;;;;21.98;9.00;;;;;;;;;;4963938;28;20034;-63
2021/04/19 02:32:12;;;;;;;24.85;9.77;;;;;;;;;;4942843;28;20485;-64
2021/04/19 02:34:38;;;;;;;23.40;10.65;;;;;;;;;;4959818;28;20133;-64
2021/04/19 02:37:05;;;;;;;19.58;10.05;;;;;;;;;;4964768;28;20041;-64
2021/04/19 02:39:32;;;;;;;21.25;9.77;;;;;;;;;;4947380;28;20069;-65
2021/04/19 02:42:00;;;;;;;26.10;10.43;;;;;;;;;;4971280;28;20070;-64
2021/04/19 02:44:29;;;;;;;30.20;11.48;;;;;;;;;;4945321;28;20038;-64
2021/04/19 02:46:55;;;;;;;21.15;11.27;;;;;;;;;;4957563;28;22065;-64
2021/04/19 02:49:22;;;;;;;27.05;10.93;;;;;;;;;;4965112;28;20023;-64
2021/04/19 02:51:51;;;;;;;22.42;11.02;;;;;;;;;;4959383;28;20030;-64
2021/04/19 02:54:24;;;;;;;23.25;10.20;;;;;;;;;;4959287;28;20045;-64
2021/04/19 02:56:53;;;;;;;21.98;10.23;;;;;;;;;;4947224;28;20058;-64
2021/04/19 02:59:23;;;;;;;22.98;9.93;;;;;;;;;;4959231;28;20125;-64
2021/04/19 03:01:50;;;;;;;17.15;9.65;;;;;;;;;;4960397;28;20045;-64
2021/04/19 03:04:18;;;;;;;23.75;11.27;;;;;;;;;;4960797;28;20039;-65
2021/04/19 03:06:49;;;;;;;23.98;10.75;;;;;;;;;;4960909;28;20132;-65
2021/04/19 03:09:20;;;;;;;26.00;10.80;;;;;;;;;;4963217;28;20092;-65
2021/04/19 03:11:51;;;;;;;21.48;10.73;;;;;;;;;;4957835;28;20035;-65
2021/04/19 03:14:18;;;;;;;30.00;11.13;;;;;;;;;;4961213;28;20030;-65
2021/04/19 03:16:48;;;;;;;25.23;10.82;;;;;;;;;;4954104;28;20026;-65
2021/04/19 03:19:15;;;;;;;24.65;11.63;;;;;;;;;;4959578;28;20034;-65
2021/04/19 03:21:44;;;;;;;27.80;11.05;;;;;;;;;;4960005;28;20039;-65
2021/04/19 03:24:14;;;;;;;33.15;10.93;;;;;;;;;;4958355;28;20039;-64
2021/04/19 03:26:44;;;;;;;28.10;10.90;;;;;;;;;;4960294;28;20141;-64
2021/04/19 03:29:11;;;;;;;20.83;9.80;;;;;;;;;;4958405;28;20034;-65
2021/04/19 03:31:58;;;;;;;22.83;10.57;;;;;;;;;;4959279;28;20034;-64
2021/04/19 03:34:26;;;;;;;27.48;10.85;;;;;;;;;;4947866;28;20035;-65
2021/04/19 03:36:57;;;;;;;25.35;11.13;;;;;;;;;;4959042;28;21471;-64
2021/04/19 03:39:24;;;;;;;25.60;11.80;;;;;;;;;;4943021;28;20570;-65
2021/04/19 03:41:54;;;;;;;18.83;10.27;;;;;;;;;;4956312;28;20051;-64
2021/04/19 03:44:22;;;;;;;22.25;10.55;;;;;;;;;;4942889;28;20026;-64
2021/04/19 03:46:50;;;;;;;24.08;11.82;;;;;;;;;;4960799;28;20153;-66
2021/04/19 03:49:20;;;;;;;27.92;10.23;;;;;;;;;;4960947;28;20022;-65
2021/04/19 03:51:49;;;;;;;17.65;9.52;;;;;;;;;;4941924;28;20031;-64
2021/04/19 03:54:18;;;;;;;23.38;10.32;;;;;;;;;;4948946;28;20039;-65
2021/04/19 03:56:45;;;;;;;25.92;11.80;;;;;;;;;;4974889;28;20558;-64
2021/04/19 03:59:13;;;;;;;24.70;10.60;;;;;;;;;;4959044;28;20045;-65
2021/04/19 04:01:42;;;;;;;23.27;10.65;;;;;;;;;;4973566;28;20073;-65
2021/04/19 04:04:09;;;;;;;20.23;10.40;;;;;;;;;;4957291;28;20659;-65
2021/04/19 04:06:44;;;;;;;23.02;11.10;;;;;;;;;;4964925;28;20035;-65
2021/04/19 04:09:11;;;;;;;26.90;11.48;;;;;;;;;;4976978;28;20060;-65
2021/04/19 04:11:39;;;;;;;29.67;12.38;;;;;;;;;;4960529;28;20034;-65
2021/04/19 04:14:06;;;;;;;29.33;12.10;;;;;;;;;;4961210;28;20041;-65
2021/04/19 04:16:32;;;;;;;27.27;11.43;;;;;;;;;;4974463;28;20190;-64
2021/04/19 04:18:58;;;;;;;19.05;10.60;;;;;;;;;;4962797;28;20588;-67
2021/04/19 04:21:24;;;;;;;29.25;12.63;;;;;;;;;;4974759;28;20045;-65
2021/04/19 04:23:52;;;;;;;31.45;12.43;;;;;;;;;;4960864;28;20069;-64
2021/04/19 04:26:17;;;;;;;22.88;11.15;;;;;;;;;;4951445;28;20026;-65
2021/04/19 04:28:44;;;;;;;26.58;11.30;;;;;;;;;;4960118;28;20092;-64
2021/04/19 04:31:10;;;;;;;24.25;10.02;;;;;;;;;;4958776;28;20940;-64
2021/04/19 04:33:35;;;;;;;22.13;10.82;;;;;;;;;;4960597;28;20045;-65
2021/04/19 04:36:01;;;;;;;22.88;10.52;;;;;;;;;;4961705;28;20034;-64
2021/04/19 04:38:27;;;;;;;27.00;10.43;;;;;;;;;;4926175;28;20717;-66
2021/04/19 04:40:55;;;;;;;24.05;11.02;;;;;;;;;;4962608;28;20037;-66
2021/04/19 04:43:21;;;;;;;28.63;10.18;;;;;;;;;;4957801;28;20114;-65
2021/04/19 04:45:48;;;;;;;20.20;10.23;;;;;;;;;;4958443;28;20042;-65
2021/04/19 04:48:23;;;;;;;24.60;10.65;;;;;;;;;;4958339;28;20042;-67
2021/04/19 04:50:56;;;;;;;19.27;10.40;;;;;;;;;;4959873;28;20038;-64
2021/04/19 04:53:43;;;;;;;20.00;9.27;;;;;;;;;;4958308;28;20022;-65
2021/04/19 04:56:11;;;;;;;20.73;10.75;;;;;;;;;;4959096;28;20041;-65
2021/04/19 04:58:38;;;;;;;21.20;9.93;;;;;;;;;;4961848;28;20143;-65
2021/04/19 05:01:06;;;;;;;25.73;11.50;;;;;;;;;;4959026;28;20108;-65
2021/04/19 05:03:35;;;;;;;25.88;11.00;;;;;;;;;;4940260;28;21114;-65
2021/04/19 05:06:02;;;;;;;29.88;11.52;;;;;;;;;;4958813;28;20061;-65
2021/04/19 05:08:32;;;;;;;21.40;11.13;;;;;;;;;;4956041;28;20030;-65
2021/04/19 05:10:59;;;;;;;23.73;11.50;;;;;;;;;;4960133;28;20054;-66
2021/04/19 05:13:25;;;;;;;24.73;11.65;;;;;;;;;;4960087;28;20097;-66
2021/04/19 05:15:50;;;;;;;31.20;9.75;;;;;;;;;;4962272;28;20522;-65
2021/04/19 05:18:17;;;;;;;25.65;10.05;;;;;;;;;;4963948;28;20054;-66
2021/04/19 05:20:43;;;;;;;27.38;10.70;;;;;;;;;;4946196;28;21003;-65
2021/04/19 05:23:12;;;;;;;20.30;10.07;;;;;;;;;;4957909;28;20161;-69
2021/04/19 05:25:38;;;;;;;18.50;9.35;;;;;;;;;;4958487;28;20019;-65
2021/04/19 05:28:04;;;;;;;26.27;10.40;;;;;;;;;;4956844;28;20058;-66
2021/04/19 05:30:36;;;;;;;26.80;10.27;;;;;;;;;;4959077;28;20034;-66
2021/04/19 05:33:07;;;;;;;18.40;10.32;;;;;;;;;;4960893;28;20085;-66
2021/04/19 05:35:33;;;;;;;23.13;10.30;;;;;;;;;;4976344;28;20055;-66
2021/04/19 05:38:01;;;;;;;21.90;10.07;;;;;;;;;;4962752;28;20041;-66
2021/04/19 05:40:28;;;;;;;23.02;10.48;;;;;;;;;;4962295;28;20037;-66
2021/04/19 05:42:54;;;;;;;20.38;10.82;;;;;;;;;;4962520;28;20047;-65
2021/04/19 05:45:20;;;;;;;19.05;10.38;;;;;;;;;;4964030;28;20517;-66
2021/04/19 05:47:47;;;;;;;21.00;8.38;;;;;;;;;;4960186;28;20172;-65
2021/04/19 05:50:13;;;;;;;21.40;9.68;;;;;;;;;;4961163;28;20085;-66
2021/04/19 05:52:40;;;;;;;18.88;9.20;;;;;;;;;;4961842;28;20073;-65
2021/04/19 05:55:10;;;;;;;20.85;8.45;;;;;;;;;;4964741;28;20034;-65
2021/04/19 05:57:42;;;;;;;17.13;8.82;;;;;;;;;;4961594;28;20038;-66
2021/04/19 06:00:16;;;;;;;13.93;8.35;;;;;;;;;;4975931;28;22109;-66
2021/04/19 06:02:45;;;;;;;14.93;7.73;;;;;;;;;;4961643;28;20035;-66
2021/04/19 06:05:23;;;;;;;13.02;7.70;;;;;;;;;;4960950;28;20034;-65
2021/04/19 06:07:56;;;;;;;21.70;7.85;;;;;;;;;;4966222;28;20730;-66
2021/04/19 06:10:31;;;;;;;16.10;7.55;;;;;;;;;;4960471;28;20033;-66
2021/04/19 06:12:58;;;;;;;13.57;7.40;;;;;;;;;;4961398;28;20160;-66
2021/04/19 06:15:27;;;;;;;11.52;6.72;;;;;;;;;;4976508;28;20049;-65
2021/04/19 06:17:53;;;;;;;15.98;7.47;;;;;;;;;;4965341;28;20053;-66
2021/04/19 06:20:20;;;;;;;18.02;6.78;;;;;;;;;;4969036;28;20050;-65
2021/04/19 06:22:50;;;;;;;16.95;7.45;;;;;;;;;;4958900;28;20026;-65
2021/04/19 06:25:17;;;;;;;12.70;6.88;;;;;;;;;;4976427;28;20076;-66
2021/04/19 06:27:57;;;;;;;11.85;6.47;;;;;;;;;;4960369;28;20058;-65
2021/04/19 06:30:25;;;;;;;11.95;6.13;;;;;;;;;;4964316;28;20022;-67
2021/04/19 06:32:54;;;;;;;15.20;7.53;;;;;;;;;;4962590;28;20160;-65
2021/04/19 06:35:20;;;;;;;18.58;7.07;;;;;;;;;;4976946;28;20046;-65
2021/04/19 06:37:57;;;;;;;11.75;6.88;;;;;;;;;;4962675;28;20073;-66
2021/04/19 06:40:24;;;;;;;14.38;6.28;;;;;;;;;;4967457;28;20037;-67
2021/04/19 06:42:53;;;;;;;14.63;7.18;;;;;;;;;;4962519;28;20166;-66
2021/04/19 06:45:27;;;;;;;15.98;6.72;;;;;;;;;;4960310;28;21038;-65
2021/04/19 06:47:53;;;;;;;12.50;6.90;;;;;;;;;;4962182;28;20043;-66
2021/04/19 06:50:28;;;;;;;10.20;6.05;;;;;;;;;;4964558;28;20109;-66
2021/04/19 06:52:54;;;;;;;13.80;6.88;;;;;;;;;;4946460;28;20030;-65
2021/04/19 06:55:26;;;;;;;13.73;6.35;;;;;;;;;;4968786;28;20172;-67
2021/04/19 06:57:52;;;;;;;16.80;6.88;;;;;;;;;;4961427;28;20039;-65
2021/04/19 07:00:33;;;;;;;15.85;7.47;;;;;;;;;;4961441;28;20031;-66
2021/04/19 07:03:03;;;;;;;12.45;6.78;;;;;;;;;;4943750;28;20031;-67
2021/04/19 07:05:38;;;;;;;13.63;6.32;;;;;;;;;;4960502;28;20034;-66
2021/04/19 07:08:27;;;;;;;12.73;5.75;;;;;;;;;;4976555;28;20043;-66
2021/04/19 07:11:04;;;;;;;12.95;6.53;;;;;;;;;;4974083;28;20035;-66
2021/04/19 07:13:37;;;;;;;14.95;7.18;;;;;;;;;;4977818;28;20043;-67
2021/04/19 07:16:08;;;;;;;10.07;6.10;;;;;;;;;;4959505;28;20042;-67
2021/04/19 07:18:36;;;;;;;15.15;7.10;;;;;;;;;;4946487;28;20034;-66
2021/04/19 07:21:02;;;;;;;13.00;6.05;;;;;;;;;;4961697;28;20035;-67
2021/04/19 07:23:28;;;;;;;12.10;5.97;;;;;;;;;;4962836;28;20039;-67
2021/04/19 07:25:53;;;;;;;11.93;5.80;;;;;;;;;;4962378;28;20043;-67
2021/04/19 07:28:22;;;;;;;13.90;6.40;;;;;;;;;;4959143;28;20027;-67
2021/04/19 07:30:57;;;;;;;12.15;5.95;;;;;;;;;;4958917;28;20749;-68
2021/04/19 07:33:34;;;;;;;13.48;6.38;;;;;;;;;;4960230;28;20068;-69
2021/04/19 07:36:25;;;;;;;12.50;6.25;;;;;;;;;;4972382;28;20175;-67
2021/04/19 07:38:52;;;;;;;11.55;6.15;;;;;;;;;;4964698;28;20061;-68
2021/04/19 07:41:18;;;;;;;13.57;5.88;;;;;;;;;;4958757;28;20154;-67
2021/04/19 07:43:45;;;;;;;12.10;6.07;;;;;;;;;;4973603;28;20129;-67
2021/04/19 07:46:15;;;;;;;15.18;6.18;;;;;;;;;;4957813;28;20093;-67
2021/04/19 07:48:50;;;;;;;11.13;5.65;;;;;;;;;;4958671;28;20482;-67
2021/04/19 07:51:27;;;;;;;11.25;5.90;;;;;;;;;;4942850;28;20130;-67
2021/04/19 07:54:18;;;;;;;11.10;5.57;;;;;;;;;;4964200;28;20078;-67
2021/04/19 07:57:04;;;;;;;12.73;6.05;;;;;;;;;;4965594;28;20375;-67
2021/04/19 07:59:32;;;;;;;16.15;6.45;;;;;;;;;;4957061;28;20537;-67
2021/04/19 08:02:21;;;;;;;11.20;5.97;;;;;;;;;;4959811;28;20525;-69
2021/04/19 08:04:51;;;;;;;11.45;5.30;;;;;;;;;;4974787;28;20035;-67
2021/04/19 08:07:22;;;;;;;11.30;5.57;;;;;;;;;;4960220;28;20037;-66
2021/04/19 08:10:05;;;;;;;12.05;5.78;;;;;;;;;;4965651;28;20081;-67
2021/04/19 08:12:33;;;;;;;12.77;6.30;;;;;;;;;;4957717;28;20947;-68
2021/04/19 08:14:58;;;;;;;9.48;5.10;;;;;;;;;;4957938;28;20038;-68
2021/04/19 08:17:30;;;;;;;10.60;5.35;;;;;;;;;;4959065;28;20023;-68
2021/04/19 08:19:59;;;;;;;9.38;4.95;;;;;;;;;;4955047;28;20666;-66
2021/04/19 08:22:30;;;;;;;9.43;4.53;;;;;;;;;;4956090;28;20100;-67
2021/04/19 08:25:18;;;;;;;8.13;5.28;;;;;;;;;;4961541;28;20445;-68
2021/04/19 08:28:00;;;;;;;11.60;5.53;;;;;;;;;;4962641;28;20461;-68
2021/04/19 08:30:25;;;;;;;7.72;4.50;;;;;;;;;;4963282;28;20034;-67
2021/04/19 08:32:51;;;;;;;9.23;4.80;;;;;;;;;;4958860;28;20034;-67
2021/04/19 08:35:17;;;;;;;8.02;5.13;;;;;;;;;;4964684;28;20379;-68
2021/04/19 08:37:48;;;;;;;11.38;5.60;;;;;;;;;;4958655;28;20026;-67
2021/04/19 08:40:19;;;;;;;10.43;5.15;;;;;;;;;;4974714;28;20035;-68
2021/04/19 08:42:54;;;;;;;10.43;4.90;;;;;;;;;;4958969;28;20046;-68
2021/04/19 08:45:20;;;;;;;8.40;5.53;;;;;;;;;;4958302;28;20030;-67
2021/04/19 08:47:46;;;;;;;8.45;5.13;;;;;;;;;;4957980;28;20038;-69
2021/04/19 08:50:24;;;;;;;11.32;5.07;;;;;;;;;;4958559;28;20473;-67
2021/04/19 08:52:51;;;;;;;13.48;5.13;;;;;;;;;;4972033;28;20030;-69
2021/04/19 08:55:17;;;;;;;9.32;5.47;;;;;;;;;;4959151;28;20050;-68
2021/04/19 08:57:43;;;;;;;7.32;5.10;;;;;;;;;;4958841;28;20123;-68
2021/04/19 09:00:10;;;;;;;8.23;5.38;;;;;;;;;;4956384;28;20032;-68
2021/04/19 09:02:39;;;;;;;8.93;5.15;;;;;;;;;;4971805;28;20046;-67
2021/04/19 09:05:15;;;;;;;10.30;5.28;;;;;;;;;;4957777;28;20993;-68
2021/04/19 09:07:42;;;;;;;11.80;5.60;;;;;;;;;;4971847;28;20445;-68
2021/04/19 09:10:11;;;;;;;14.52;5.88;;;;;;;;;;4959992;28;20035;-67
2021/04/19 09:12:46;;;;;;;11.98;6.20;;;;;;;;;;4961357;28;20829;-69
2021/04/19 09:15:20;;;;;;;9.77;5.18;;;;;;;;;;4960879;28;20033;-67
2021/04/19 09:18:18;;;;;;;13.45;6.55;;;;;;;;;;4962523;28;20042;-68
2021/04/19 09:20:43;;;;;;;11.40;6.25;;;;;;;;;;4933538;28;20296;-67
2021/04/19 09:23:23;;;;;;;13.60;6.43;;;;;;;;;;4963550;28;20665;-69
2021/04/19 09:25:52;;;;;;;9.55;5.78;;;;;;;;;;4961244;28;20045;-66
2021/04/19 09:28:32;;;;;;;9.43;5.80;;;;;;;;;;4967253;28;20043;-68
2021/04/19 09:31:01;;;;;;;12.07;5.82;;;;;;;;;;4973626;28;20041;-67
2021/04/19 09:33:32;;;;;;;12.30;6.50;;;;;;;;;;4961326;28;20161;-68
2021/04/19 09:35:58;;;;;;;11.73;6.50;;;;;;;;;;4960589;28;20030;-67
2021/04/19 09:38:38;;;;;;;12.05;6.43;;;;;;;;;;4960270;28;20688;-67
2021/04/19 09:41:05;;;;;;;7.03;5.03;;;;;;;;;;4960894;28;20076;-68
2021/04/19 09:43:32;;;;;;;9.23;5.28;;;;;;;;;;4959847;28;20076;-66
2021/04/19 09:46:08;;;;;;;11.82;5.32;;;;;;;;;;4960545;28;21360;-67
2021/04/19 09:48:46;;;;;;;15.07;5.95;;;;;;;;;;4955369;28;20034;-67
2021/04/19 09:51:16;;;;;;;12.57;5.85;;;;;;;;;;4973531;28;20553;-68
2021/04/19 09:53:52;;;;;;;11.55;6.35;;;;;;;;;;4967010;28;20080;-67
2021/04/19 09:56:31;;;;;;;8.98;5.25;;;;;;;;;;4962054;28;20150;-67
2021/04/19 09:58:57;;;;;;;9.75;5.82;;;;;;;;;;4977034;28;20046;-67
2021/04/19 10:01:27;;;;;;;13.48;6.80;;;;;;;;;;4962034;28;20031;-67
2021/04/19 10:03:53;;;;;;;13.80;6.78;;;;;;;;;;4962481;28;20063;-67
2021/04/19 10:06:29;;;;;;;11.52;6.90;;;;;;;;;;4961951;28;20070;-68
2021/04/19 10:09:21;;;;;;;11.35;6.93;;;;;;;;;;4963169;28;20109;-66
2021/04/19 10:11:56;;;;;;;12.73;6.70;;;;;;;;;;4960774;28;20030;-65
2021/04/19 10:14:22;;;;;;;11.43;6.75;;;;;;;;;;4961425;28;20106;-67
2021/04/19 10:16:49;;;;;;;11.00;6.20;;;;;;;;;;4975043;28;20096;-67
2021/04/19 10:19:30;;;;;;;11.68;5.72;;;;;;;;;;4962040;28;20037;-67
2021/04/19 10:22:09;;;;;;;15.48;6.90;;;;;;;;;;4959612;28;20039;-67
2021/04/19 10:24:36;;;;;;;11.43;6.38;;;;;;;;;;4962607;28;20114;-68
2021/04/19 10:27:03;;;;;;;11.43;7.35;;;;;;;;;;4974762;28;20398;-67
2021/04/19 10:29:28;;;;;;;13.57;7.18;;;;;;;;;;4961257;28;20031;-68
2021/04/19 10:31:59;;;;;;;10.57;6.85;;;;;;;;;;4961762;28;20846;-66
2021/04/19 10:34:27;;;;;;;13.63;7.13;;;;;;;;;;4959915;28;20662;-66
2021/04/19 10:36:54;;;;;;;12.23;6.65;;;;;;;;;;4961196;28;20037;-67
2021/04/19 10:39:20;;;;;;;12.98;7.30;;;;;;;;;;4961120;28;20034;-67
2021/04/19 10:41:48;;;;;;;14.82;7.03;;;;;;;;;;4976833;28;20045;-67
2021/04/19 10:44:15;;;;;;;16.38;7.63;;;;;;;;;;4976594;28;20100;-66
2021/04/19 10:46:43;;;;;;;12.18;7.47;;;;;;;;;;4939161;28;20035;-67
2021/04/19 10:49:25;;;;;;;12.77;8.02;;;;;;;;;;4960210;28;21282;-66
2021/04/19 10:51:59;;;;;;;13.98;7.82;;;;;;;;;;4958841;28;20190;-66
2021/04/19 10:54:33;;;;;;;12.65;7.70;;;;;;;;;;4960456;28;20027;-66
2021/04/19 10:57:01;;;;;;;12.70;7.32;;;;;;;;;;4962849;28;20121;-64
2021/04/19 10:59:26;;;;;;;15.70;8.90;;;;;;;;;;4959581;28;20734;-67
2021/04/19 11:02:01;;;;;;;12.68;7.65;;;;;;;;;;4964289;28;20046;-65
2021/04/19 11:04:34;;;;;;;10.65;7.70;;;;;;;;;;4958768;28;20129;-68
2021/04/19 11:07:32;;;;;;;14.95;7.80;;;;;;;;;;4961108;28;20043;-66
2021/04/19 11:10:11;;;;;;;12.38;7.32;;;;;;;;;;4933853;28;20061;-65
2021/04/19 11:12:52;;;;;;;12.00;7.82;;;;;;;;;;4958318;28;20043;-64
2021/04/19 11:15:27;;;;;;;11.60;7.50;;;;;;;;;;4960441;28;20101;-66
2021/04/19 11:17:52;;;;;;;11.48;7.03;;;;;;;;;;4972741;28;20092;-65
2021/04/19 11:20:26;;;;;;;11.20;7.60;;;;;;;;;;4935021;28;20137;-68
2021/04/19 11:22:55;;;;;;;13.13;7.10;;;;;;;;;;4959131;28;20034;-64
2021/04/19 11:25:21;;;;;;;14.02;6.43;;;;;;;;;;4960967;28;20038;-66
2021/04/19 11:27:53;;;;;;;9.23;6.90;;;;;;;;;;4965032;28;20108;-64
2021/04/19 11:30:24;;;;;;;12.57;7.32;;;;;;;;;;4958814;28;20058;-66
2021/04/19 11:33:06;;;;;;;16.13;6.45;;;;;;;;;;4959655;28;20035;-65
2021/04/19 11:35:34;;;;;;;11.13;6.40;;;;;;;;;;4964906;28;20034;-66
2021/04/19 11:38:00;;;;;;;12.70;6.80;;;;;;;;;;4957815;28;20054;-66
2021/04/19 11:40:36;;;;;;;13.25;7.20;;;;;;;;;;4957575;28;20034;-66
2021/04/19 11:43:25;;;;;;;9.93;6.25;;;;;;;;;;4963950;28;20058;-66
2021/04/19 11:46:10;;;;;;;9.60;6.38;;;;;;;;;;4948847;28;20058;-66
2021/04/19 11:48:37;;;;;;;11.73;7.15;;;;;;;;;;4973526;28;20038;-68
2021/04/19 11:51:09;;;;;;;12.77;7.80;;;;;;;;;;4958851;28;20430;-65
2021/04/19 11:53:36;;;;;;;11.82;7.07;;;;;;;;;;4965012;28;20046;-65
2021/04/19 11:56:04;;;;;;;11.43;7.93;;;;;;;;;;4959169;28;20037;-65
2021/04/19 11:58:35;;;;;;;12.55;7.90;;;;;;;;;;4972894;28;20034;-66
2021/04/19 12:01:06;;;;;;;9.70;6.25;;;;;;;;;;4963806;28;21062;-65
2021/04/19 12:03:39;;;;;;;10.05;7.03;;;;;;;;;;5007989;27;2655820;-65
2021/04/19 12:06:05;;;;;;;13.98;7.25;;;;;;;;;;5077621;28;20032;-64
2021/04/19 12:08:31;;;;;;;10.25;6.88;;;;;;;;;;5075711;28;20036;-64
2021/04/19 12:10:58;;;;;;;8.65;6.32;;;;;;;;;;5075464;28;20046;-66
2021/04/19 12:13:28;;;;;;;12.10;7.15;;;;;;;;;;5074962;28;20055;-67
2021/04/19 12:15:57;;;;;;;11.02;7.18;;;;;;;;;;5091300;27;20465;-65
2021/04/19 12:18:26;;;;;;;9.75;7.22;;;;;;;;;;5073817;28;20032;-64
2021/04/19 12:20:54;;;;;;;10.93;6.85;;;;;;;;;;5055434;28;20067;-65
2021/04/19 12:23:20;;;;;;;10.88;6.85;;;;;;;;;;5061667;28;20629;-64
2021/04/19 12:25:50;;;;;;;16.67;7.53;;;;;;;;;;5074595;27;20027;-64
2021/04/19 12:28:18;;;;;;;12.38;7.88;;;;;;;;;;5092921;27;20020;-65
2021/04/19 12:30:44;;;;;;;7.97;6.25;;;;;;;;;;5074058;28;20060;-67
2021/04/19 12:33:16;;;;;;;10.55;7.22;;;;;;;;;;5074656;28;20104;-65
2021/04/19 12:35:42;;;;;;;12.27;6.88;;;;;;;;;;5071405;28;20051;-64
2021/04/19 12:38:08;;;;;;;11.52;6.90;;;;;;;;;;5090878;27;20445;-64
2021/04/19 12:40:33;;;;;;;14.43;8.02;;;;;;;;;;5073499;28;20032;-67
2021/04/19 12:43:05;;;;;;;11.38;7.07;;;;;;;;;;5072839;28;20032;-65
2021/04/19 12:45:35;;;;;;;10.77;7.32;;;;;;;;;;5060244;28;20984;-66
2021/04/19 12:48:03;;;;;;;13.80;7.18;;;;;;;;;;5073141;28;20070;-65
2021/04/19 12:50:29;;;;;;;12.98;7.95;;;;;;;;;;5053873;28;20110;-66
2021/04/19 12:52:56;;;;;;;14.20;7.75;;;;;;;;;;5071825;28;20034;-65
2021/04/19 12:55:22;;;;;;;9.57;6.35;;;;;;;;;;5053307;28;20047;-65
2021/04/19 12:57:54;;;;;;;9.75;7.05;;;;;;;;;;5053769;28;20032;-64
2021/04/19 13:00:20;;;;;;;11.15;7.60;;;;;;;;;;5045559;28;20024;-63
2021/04/19 13:02:46;;;;;;;15.35;7.38;;;;;;;;;;5052993;28;20052;-65
2021/04/19 13:05:12;;;;;;;12.57;7.60;;;;;;;;;;5054936;28;21154;-65
2021/04/19 13:07:38;;;;;;;13.73;8.65;;;;;;;;;;5061489;28;20551;-64
2021/04/19 13:10:11;;;;;;;11.32;7.20;;;;;;;;;;5061077;28;20031;-64
2021/04/19 13:12:40;;;;;;;12.60;7.35;;;;;;;;;;5054969;28;20040;-65
2021/04/19 13:15:09;;;;;;;12.98;7.97;;;;;;;;;;5040128;28;20056;-66
2021/04/19 13:17:38;;;;;;;15.13;8.02;;;;;;;;;;5043011;28;20657;-65
2021/04/19 13:20:07;;;;;;;11.98;6.95;;;;;;;;;;5040291;28;20055;-65
2021/04/19 13:22:33;;;;;;;11.02;7.50;;;;;;;;;;5039731;28;20032;-66
2021/04/19 13:24:59;;;;;;;18.17;7.82;;;;;;;;;;5041968;28;20032;-64
2021/04/19 13:27:33;;;;;;;11.70;7.63;;;;;;;;;;5043601;28;20028;-64
2021/04/19 13:30:17;;;;;;;11.65;7.30;;;;;;;;;;5011303;28;20037;-67
2021/04/19 13:32:45;;;;;;;9.93;7.13;;;;;;;;;;5025681;28;20648;-65
2021/04/19 13:35:11;;;;;;;10.63;7.47;;;;;;;;;;5026849;28;20109;-66
2021/04/19 13:37:41;;;;;;;9.43;6.88;;;;;;;;;;5008830;28;20610;-66
2021/04/19 13:40:17;;;;;;;11.07;7.25;;;;;;;;;;5027295;28;20063;-65
2021/04/19 13:42:45;;;;;;;14.15;7.60;;;;;;;;;;5010562;28;20045;-64
2021/04/19 13:45:13;;;;;;;10.85;6.80;;;;;;;;;;5028298;28;20719;-64
2021/04/19 13:47:41;;;;;;;12.15;7.38;;;;;;;;;;4992851;28;20033;-66
2021/04/19 13:50:11;;;;;;;9.70;6.75;;;;;;;;;;5024948;28;20041;-67
2021/04/19 13:52:40;;;;;;;11.32;7.28;;;;;;;;;;5024403;28;20222;-64
2021/04/19 13:55:09;;;;;;;10.77;6.70;;;;;;;;;;5010374;28;20889;-66
2021/04/19 13:57:36;;;;;;;10.52;6.93;;;;;;;;;;4986629;28;20033;-67
2021/04/19 14:00:03;;;;;;;9.13;6.00;;;;;;;;;;5029276;28;20725;-64
2021/04/19 14:02:31;;;;;;;10.65;6.35;;;;;;;;;;5057339;28;20036;-65
2021/04/19 14:04:57;;;;;;;11.50;7.45;;;;;;;;;;5059361;28;20105;-65
2021/04/19 14:07:30;;;;;;;10.38;6.55;;;;;;;;;;5058728;28;20873;-66
2021/04/19 14:09:56;;;;;;;11.00;6.75;;;;;;;;;;5025129;28;20055;-65
2021/04/19 14:12:27;;;;;;;11.82;6.82;;;;;;;;;;5046275;28;20887;-66
2021/04/19 14:14:52;;;;;;;10.07;6.05;;;;;;;;;;5028975;28;20040;-64
2021/04/19 14:17:18;;;;;;;10.13;6.28;;;;;;;;;;5018616;28;20141;-65
2021/04/19 14:19:44;;;;;;;9.13;6.57;;;;;;;;;;5035509;28;21000;-65
2021/04/19 14:22:12;;;;;;;10.98;6.50;;;;;;;;;;5036228;28;21049;-64
2021/04/19 14:24:44;;;;;;;15.55;8.38;;;;;;;;;;5046542;28;21058;-67
2021/04/19 14:27:22;;;;;;;14.05;7.60;;;;;;;;;;5056956;28;20706;-67
2021/04/19 14:29:47;;;;;;;12.90;6.57;;;;;;;;;;5055829;28;20023;-67
2021/04/19 14:32:13;;;;;;;10.88;6.55;;;;;;;;;;5036134;28;20385;-66
2021/04/19 14:34:39;;;;;;;8.48;6.05;;;;;;;;;;5043915;28;20068;-67
2021/04/19 14:37:08;;;;;;;10.93;6.25;;;;;;;;;;5057813;28;20033;-66
2021/04/19 14:39:35;;;;;;;8.90;6.30;;;;;;;;;;5059839;28;20047;-64
2021/04/19 14:42:08;;;;;;;9.75;6.18;;;;;;;;;;5057572;28;20108;-65
2021/04/19 14:44:37;;;;;;;9.20;6.05;;;;;;;;;;5041478;28;20036;-64